Time;durP1;ratioP1;P1;durP2;ratioP2;P2;SDS_P1;SDS_P2;PMS_P1;PMS_P2;Temp;Humidity;BMP_temperature;BMP_pressure;BME280_temperature;BME280_humidity;BME280_pressure;Samples;Min_cycle;Max_cycle;Signal;HPM_P1;HPM_P2
2023/05/18 00:02:25;;;;;;;11.57;3.35;;;;;;;;;;5077511;28;20488;-79
2023/05/18 00:04:51;;;;;;;12.48;4.25;;;;;;;;;;5070118;28;20872;-78
2023/05/18 00:07:17;;;;;;;15.13;4.20;;;;;;;;;;5075405;28;20178;-79
2023/05/18 00:09:43;;;;;;;11.68;3.67;;;;;;;;;;5070091;28;20395;-80
2023/05/18 00:12:09;;;;;;;11.98;3.72;;;;;;;;;;5079310;28;20108;-80
2023/05/18 00:14:36;;;;;;;10.02;3.08;;;;;;;;;;5080407;28;20117;-78
2023/05/18 00:17:02;;;;;;;7.38;3.28;;;;;;;;;;5071809;28;20052;-78
2023/05/18 00:19:28;;;;;;;11.32;3.20;;;;;;;;;;5082416;28;20031;-79
2023/05/18 00:21:56;;;;;;;8.32;2.75;;;;;;;;;;5059929;28;20034;-80
2023/05/18 00:24:22;;;;;;;15.18;3.65;;;;;;;;;;5086060;28;20791;-77
2023/05/18 00:26:48;;;;;;;8.55;2.90;;;;;;;;;;5077957;28;20026;-78
2023/05/18 00:29:15;;;;;;;12.90;3.20;;;;;;;;;;5078690;28;20056;-82
2023/05/18 00:31:43;;;;;;;11.00;3.30;;;;;;;;;;5085879;28;20068;-82
2023/05/18 00:34:10;;;;;;;10.95;3.70;;;;;;;;;;5078773;28;20060;-78
2023/05/18 00:36:36;;;;;;;5.88;2.45;;;;;;;;;;5073117;28;20077;-79
2023/05/18 00:39:03;;;;;;;9.05;2.88;;;;;;;;;;5077572;28;20123;-82
2023/05/18 00:41:30;;;;;;;7.82;3.00;;;;;;;;;;5075318;28;20229;-81
2023/05/18 00:43:56;;;;;;;7.38;2.95;;;;;;;;;;5076026;28;20024;-78
2023/05/18 00:46:23;;;;;;;8.70;3.05;;;;;;;;;;5082690;28;20473;-78
2023/05/18 00:48:50;;;;;;;12.02;3.10;;;;;;;;;;5080308;28;20032;-80
2023/05/18 00:51:17;;;;;;;7.03;2.58;;;;;;;;;;5068095;28;20093;-81
2023/05/18 00:53:43;;;;;;;10.02;2.95;;;;;;;;;;5077786;28;20038;-78
2023/05/18 00:56:11;;;;;;;11.55;3.00;;;;;;;;;;5055893;28;20024;-79
2023/05/18 00:58:41;;;;;;;9.88;3.17;;;;;;;;;;5075315;28;20063;-81
2023/05/18 01:01:11;;;;;;;11.73;3.13;;;;;;;;;;5068021;28;20028;-82
2023/05/18 01:03:37;;;;;;;11.35;3.08;;;;;;;;;;5075452;28;20028;-80
2023/05/18 01:06:08;;;;;;;8.82;3.22;;;;;;;;;;5071737;28;20020;-79
2023/05/18 01:08:35;;;;;;;6.40;3.05;;;;;;;;;;5080451;28;20066;-80
2023/05/18 01:11:07;;;;;;;9.40;3.22;;;;;;;;;;5075245;28;20129;-81
2023/05/18 01:14:00;;;;;;;12.20;3.75;;;;;;;;;;5072462;28;20155;-78
2023/05/18 01:16:31;;;;;;;13.07;3.63;;;;;;;;;;5042015;28;20067;-79
2023/05/18 01:19:06;;;;;;;9.73;3.70;;;;;;;;;;5081842;28;20114;-79
2023/05/18 01:21:42;;;;;;;10.10;4.10;;;;;;;;;;5078228;28;20105;-79
2023/05/18 01:24:14;;;;;;;11.50;2.70;;;;;;;;;;5081936;28;20538;-78
2023/05/18 01:26:44;;;;;;;10.27;3.45;;;;;;;;;;5075337;28;20023;-78
2023/05/18 01:29:12;;;;;;;6.40;2.65;;;;;;;;;;5073572;28;20039;-81
2023/05/18 01:31:39;;;;;;;6.38;2.60;;;;;;;;;;5077963;28;20040;-82
2023/05/18 01:34:05;;;;;;;8.57;3.03;;;;;;;;;;5073398;28;20384;-81
2023/05/18 01:36:32;;;;;;;6.88;2.40;;;;;;;;;;5065211;28;20021;-81
2023/05/18 01:39:00;;;;;;;8.88;3.10;;;;;;;;;;5066375;28;20024;-81
2023/05/18 01:41:28;;;;;;;5.28;2.50;;;;;;;;;;5078258;28;20025;-80
2023/05/18 01:43:54;;;;;;;6.25;3.08;;;;;;;;;;5070456;28;20036;-79
2023/05/18 01:46:27;;;;;;;6.10;2.30;;;;;;;;;;5076319;28;20095;-80
2023/05/18 01:48:59;;;;;;;9.65;3.10;;;;;;;;;;5055657;28;20039;-78
2023/05/18 01:51:28;;;;;;;9.25;2.58;;;;;;;;;;5066612;28;20019;-79
2023/05/18 01:54:02;;;;;;;10.18;3.00;;;;;;;;;;5072929;28;20162;-78
2023/05/18 01:56:30;;;;;;;8.18;2.47;;;;;;;;;;5074025;28;20024;-80
2023/05/18 01:58:57;;;;;;;7.07;2.45;;;;;;;;;;5080542;28;20150;-79
2023/05/18 02:01:23;;;;;;;5.95;2.55;;;;;;;;;;5071441;28;20530;-79
2023/05/18 02:03:50;;;;;;;9.73;2.90;;;;;;;;;;5064764;28;20027;-80
2023/05/18 02:06:17;;;;;;;6.13;2.13;;;;;;;;;;5064512;28;20082;-79
2023/05/18 02:08:43;;;;;;;8.05;2.58;;;;;;;;;;5068337;28;20020;-79
2023/05/18 02:11:09;;;;;;;6.38;2.55;;;;;;;;;;5068529;28;20658;-78
2023/05/18 02:13:35;;;;;;;10.48;3.55;;;;;;;;;;5076759;28;20032;-82
2023/05/18 02:16:03;;;;;;;5.75;2.55;;;;;;;;;;5069388;28;20029;-81
2023/05/18 02:18:32;;;;;;;13.07;3.85;;;;;;;;;;5079664;28;20020;-83
2023/05/18 02:20:59;;;;;;;5.90;2.63;;;;;;;;;;5071737;28;20025;-78
2023/05/18 02:23:25;;;;;;;9.43;3.10;;;;;;;;;;5074089;28;20112;-82
2023/05/18 02:25:55;;;;;;;11.25;2.90;;;;;;;;;;5067148;28;20645;-80
2023/05/18 02:28:24;;;;;;;10.38;2.70;;;;;;;;;;5072987;28;20028;-81
2023/05/18 02:30:50;;;;;;;7.32;2.63;;;;;;;;;;5081786;28;20499;-79
2023/05/18 02:33:18;;;;;;;7.18;2.90;;;;;;;;;;5072971;28;20504;-79
2023/05/18 02:35:44;;;;;;;11.55;2.92;;;;;;;;;;5075196;28;20092;-82
2023/05/18 02:38:10;;;;;;;5.78;2.50;;;;;;;;;;5074996;28;20123;-81
2023/05/18 02:40:37;;;;;;;8.85;2.97;;;;;;;;;;5078362;28;20027;-79
2023/05/18 02:43:03;;;;;;;5.07;2.50;;;;;;;;;;5077519;28;20024;-82
2023/05/18 02:45:32;;;;;;;9.70;3.22;;;;;;;;;;5074824;28;20025;-81
2023/05/18 02:47:58;;;;;;;7.80;2.38;;;;;;;;;;5082813;28;20116;-81
2023/05/18 02:50:24;;;;;;;8.48;2.90;;;;;;;;;;5070004;28;20103;-82
2023/05/18 02:52:51;;;;;;;8.25;3.55;;;;;;;;;;5056542;28;20502;-80
2023/05/18 02:55:17;;;;;;;5.25;2.30;;;;;;;;;;5082392;28;20110;-81
2023/05/18 02:57:45;;;;;;;13.75;3.10;;;;;;;;;;5079875;28;20112;-82
2023/05/18 03:00:15;;;;;;;3.65;2.28;;;;;;;;;;5080001;28;20369;-82
2023/05/18 03:02:43;;;;;;;8.52;2.53;;;;;;;;;;5075838;28;20070;-79
2023/05/18 03:05:09;;;;;;;8.60;3.00;;;;;;;;;;5070171;28;20024;-79
2023/05/18 03:07:35;;;;;;;8.60;2.53;;;;;;;;;;5080603;28;20027;-79
2023/05/18 03:10:06;;;;;;;8.35;2.60;;;;;;;;;;5086260;28;20028;-79
2023/05/18 03:12:32;;;;;;;10.07;3.03;;;;;;;;;;5070321;28;20110;-82
2023/05/18 03:14:59;;;;;;;14.07;3.80;;;;;;;;;;5082668;28;20039;-80
2023/05/18 03:17:25;;;;;;;12.10;2.88;;;;;;;;;;5072977;28;20106;-83
2023/05/18 03:19:51;;;;;;;7.57;2.30;;;;;;;;;;5071470;28;20380;-78
2023/05/18 03:22:17;;;;;;;12.73;2.70;;;;;;;;;;5078572;28;20052;-78
2023/05/18 03:24:44;;;;;;;6.53;2.65;;;;;;;;;;5072818;28;20559;-79
2023/05/18 03:27:11;;;;;;;7.88;2.80;;;;;;;;;;5081925;28;20111;-78
2023/05/18 03:29:38;;;;;;;9.20;2.58;;;;;;;;;;5064483;28;20024;-79
2023/05/18 03:32:04;;;;;;;7.75;3.10;;;;;;;;;;5074405;28;20277;-79
2023/05/18 03:34:30;;;;;;;12.23;3.40;;;;;;;;;;5074429;28;20115;-78
2023/05/18 03:36:56;;;;;;;7.28;2.20;;;;;;;;;;5074638;28;20068;-78
2023/05/18 03:39:23;;;;;;;7.97;2.47;;;;;;;;;;5075086;28;20511;-82
2023/05/18 03:41:49;;;;;;;8.18;2.55;;;;;;;;;;5080094;28;20016;-81
2023/05/18 03:44:15;;;;;;;11.32;2.60;;;;;;;;;;5080293;28;20063;-79
2023/05/18 03:46:41;;;;;;;7.28;3.15;;;;;;;;;;5079103;28;20104;-78
2023/05/18 03:49:07;;;;;;;7.10;2.53;;;;;;;;;;5077641;28;20028;-79
2023/05/18 03:51:34;;;;;;;9.98;2.78;;;;;;;;;;5068394;28;20032;-79
2023/05/18 03:54:00;;;;;;;8.35;2.63;;;;;;;;;;5079748;28;20047;-82
2023/05/18 03:56:29;;;;;;;9.88;3.17;;;;;;;;;;5078113;28;20114;-82
2023/05/18 03:58:57;;;;;;;6.53;2.92;;;;;;;;;;5053833;28;20028;-83
2023/05/18 04:01:24;;;;;;;5.75;2.42;;;;;;;;;;5068953;28;20031;-82
2023/05/18 04:03:50;;;;;;;7.03;2.95;;;;;;;;;;5079362;28;20092;-80
2023/05/18 04:06:17;;;;;;;6.97;2.80;;;;;;;;;;5078875;28;20016;-81
2023/05/18 04:08:44;;;;;;;10.20;3.03;;;;;;;;;;5079178;28;20473;-80
2023/05/18 04:11:11;;;;;;;8.73;2.45;;;;;;;;;;5078466;28;20020;-81
2023/05/18 04:13:37;;;;;;;10.18;3.22;;;;;;;;;;5057153;28;20031;-82
2023/05/18 04:16:04;;;;;;;6.85;3.17;;;;;;;;;;5064448;28;20027;-83
2023/05/18 04:18:31;;;;;;;6.30;2.97;;;;;;;;;;5061150;28;20077;-81
2023/05/18 04:20:57;;;;;;;9.43;3.10;;;;;;;;;;5068523;28;20077;-81
2023/05/18 04:23:23;;;;;;;6.10;2.78;;;;;;;;;;5072286;28;20048;-82
2023/05/18 04:25:49;;;;;;;6.80;3.10;;;;;;;;;;5052891;28;20119;-84
2023/05/18 04:28:15;;;;;;;5.75;3.08;;;;;;;;;;5052393;28;20478;-82
2023/05/18 04:30:42;;;;;;;6.35;2.90;;;;;;;;;;5083831;28;20345;-80
2023/05/18 04:33:09;;;;;;;6.85;2.92;;;;;;;;;;5079064;28;20028;-81
2023/05/18 04:35:35;;;;;;;14.98;3.65;;;;;;;;;;5051871;28;20028;-80
2023/05/18 04:38:01;;;;;;;9.27;2.67;;;;;;;;;;5074082;28;20544;-81
2023/05/18 04:40:28;;;;;;;6.47;3.08;;;;;;;;;;5058830;28;20138;-80
2023/05/18 04:42:54;;;;;;;6.97;3.08;;;;;;;;;;5058158;28;20063;-80
2023/05/18 04:45:20;;;;;;;9.55;3.20;;;;;;;;;;5059261;28;20024;-83
2023/05/18 04:47:51;;;;;;;5.68;2.25;;;;;;;;;;5061748;28;20136;-83
2023/05/18 04:50:18;;;;;;;6.45;3.05;;;;;;;;;;5071245;28;20111;-83
2023/05/18 04:52:49;;;;;;;9.52;2.65;;;;;;;;;;5077437;28;20063;-82
2023/05/18 04:55:21;;;;;;;8.87;2.40;;;;;;;;;;5054571;28;20115;-82
2023/05/18 04:57:48;;;;;;;9.27;3.00;;;;;;;;;;5059291;28;20027;-80
2023/05/18 05:00:14;;;;;;;6.50;2.80;;;;;;;;;;5075745;28;20602;-81
2023/05/18 05:02:41;;;;;;;5.60;2.60;;;;;;;;;;5062117;28;20219;-79
2023/05/18 05:05:07;;;;;;;5.97;2.65;;;;;;;;;;5080599;28;20061;-80
2023/05/18 05:07:33;;;;;;;8.80;2.70;;;;;;;;;;5062642;28;20039;-80
2023/05/18 05:09:59;;;;;;;5.63;2.78;;;;;;;;;;5070495;28;20032;-82
2023/05/18 05:12:26;;;;;;;9.20;2.83;;;;;;;;;;5053643;28;20051;-82
2023/05/18 05:14:52;;;;;;;8.25;3.00;;;;;;;;;;5075646;28;20032;-81
2023/05/18 05:17:18;;;;;;;6.32;2.47;;;;;;;;;;5071487;28;20020;-82
2023/05/18 05:19:44;;;;;;;7.75;2.60;;;;;;;;;;5073684;28;20032;-81
2023/05/18 05:22:11;;;;;;;8.63;2.60;;;;;;;;;;5051637;28;20032;-80
2023/05/18 05:24:37;;;;;;;8.40;2.67;;;;;;;;;;5055406;28;20020;-82
2023/05/18 05:27:03;;;;;;;6.60;2.30;;;;;;;;;;5076337;28;20033;-81
2023/05/18 05:29:29;;;;;;;8.32;2.65;;;;;;;;;;5058783;28;20013;-82
2023/05/18 05:31:56;;;;;;;11.68;3.60;;;;;;;;;;5049144;28;20070;-82
2023/05/18 05:34:22;;;;;;;9.23;2.75;;;;;;;;;;5061334;28;20039;-79
2023/05/18 05:36:48;;;;;;;6.50;2.65;;;;;;;;;;5080371;28;20189;-83
2023/05/18 05:39:14;;;;;;;9.15;2.13;;;;;;;;;;5077628;28;20025;-75
2023/05/18 05:41:40;;;;;;;7.07;2.08;;;;;;;;;;5066791;28;20024;-80
2023/05/18 05:44:07;;;;;;;9.30;2.65;;;;;;;;;;5070492;28;20021;-80
2023/05/18 05:46:33;;;;;;;7.35;2.90;;;;;;;;;;5070730;28;20103;-80
2023/05/18 05:49:00;;;;;;;7.57;2.83;;;;;;;;;;5072536;28;20624;-79
2023/05/18 05:51:27;;;;;;;6.28;2.40;;;;;;;;;;5070509;28;20035;-80
2023/05/18 05:53:53;;;;;;;8.38;2.55;;;;;;;;;;5073754;28;20123;-80
2023/05/18 05:56:19;;;;;;;8.38;2.85;;;;;;;;;;5078823;28;20426;-81
2023/05/18 05:58:46;;;;;;;11.68;3.03;;;;;;;;;;5075558;28;20107;-80
2023/05/18 06:01:12;;;;;;;4.90;2.60;;;;;;;;;;5054828;28;20060;-80
2023/05/18 06:03:38;;;;;;;7.80;2.65;;;;;;;;;;5057272;28;20468;-80
2023/05/18 06:06:05;;;;;;;7.20;2.47;;;;;;;;;;5086104;28;20060;-80
2023/05/18 06:08:31;;;;;;;7.28;3.00;;;;;;;;;;5074746;28;20078;-80
2023/05/18 06:10:57;;;;;;;8.27;2.92;;;;;;;;;;5078391;28;20027;-79
2023/05/18 06:13:24;;;;;;;8.18;2.85;;;;;;;;;;5075472;28;20555;-80
2023/05/18 06:15:50;;;;;;;13.65;4.82;;;;;;;;;;5073811;28;20024;-79
2023/05/18 06:18:16;;;;;;;16.35;5.88;;;;;;;;;;5074216;28;20466;-80
2023/05/18 06:20:42;;;;;;;11.50;4.93;;;;;;;;;;5057361;28;20056;-80
2023/05/18 06:23:09;;;;;;;15.30;5.18;;;;;;;;;;5076502;28;20103;-79
2023/05/18 06:25:35;;;;;;;24.48;5.88;;;;;;;;;;5076576;28;20166;-80
2023/05/18 06:28:01;;;;;;;14.57;4.95;;;;;;;;;;5077646;28;20511;-79
2023/05/18 06:30:28;;;;;;;18.90;5.20;;;;;;;;;;5055696;28;20044;-81
2023/05/18 06:32:54;;;;;;;17.98;5.28;;;;;;;;;;5079315;28;20948;-85
2023/05/18 06:35:21;;;;;;;15.60;5.15;;;;;;;;;;5084262;28;20053;-81
2023/05/18 06:37:47;;;;;;;15.68;5.40;;;;;;;;;;5073633;28;20483;-84
2023/05/18 06:40:14;;;;;;;22.27;5.72;;;;;;;;;;5060541;28;20032;-86
2023/05/18 06:42:40;;;;;;;15.38;5.13;;;;;;;;;;5087538;28;20020;-85
2023/05/18 06:45:06;;;;;;;12.15;4.97;;;;;;;;;;5069585;28;20089;-88
2023/05/18 06:47:33;;;;;;;15.18;5.75;;;;;;;;;;5080199;28;20025;-87
2023/05/18 06:49:59;;;;;;;20.85;5.57;;;;;;;;;;5082749;28;20035;-86
2023/05/18 06:52:25;;;;;;;14.25;5.80;;;;;;;;;;5090331;28;20619;-86
2023/05/18 06:54:52;;;;;;;20.17;6.05;;;;;;;;;;5081636;28;20074;-86
2023/05/18 06:57:18;;;;;;;17.40;6.20;;;;;;;;;;5092701;28;20020;-87
2023/05/18 06:59:44;;;;;;;16.40;5.95;;;;;;;;;;5090420;28;20020;-86
2023/05/18 07:02:10;;;;;;;15.80;5.95;;;;;;;;;;5083861;28;20024;-88
2023/05/18 07:04:37;;;;;;;12.25;5.47;;;;;;;;;;5062901;28;20376;-86
2023/05/18 07:07:03;;;;;;;14.02;5.90;;;;;;;;;;5078508;28;20058;-85
2023/05/18 07:09:29;;;;;;;12.65;6.05;;;;;;;;;;5081493;28;20025;-84
2023/05/18 07:11:55;;;;;;;14.82;6.00;;;;;;;;;;5076344;28;20063;-84
2023/05/18 07:14:22;;;;;;;17.10;6.43;;;;;;;;;;5080007;28;20028;-81
2023/05/18 07:16:48;;;;;;;15.52;6.32;;;;;;;;;;5080816;28;20016;-84
2023/05/18 07:19:15;;;;;;;21.52;6.57;;;;;;;;;;5084694;28;20449;-81
2023/05/18 07:21:41;;;;;;;16.60;6.82;;;;;;;;;;5086490;28;20433;-84
2023/05/18 07:24:07;;;;;;;17.90;7.78;;;;;;;;;;5078353;28;20021;-83
2023/05/18 07:26:33;;;;;;;13.98;7.68;;;;;;;;;;5083878;28;20460;-84
2023/05/18 07:29:00;;;;;;;17.95;8.45;;;;;;;;;;5079417;28;20093;-84
2023/05/18 07:31:26;;;;;;;18.42;8.63;;;;;;;;;;5091764;28;20100;-84
2023/05/18 07:33:52;;;;;;;18.35;9.48;;;;;;;;;;5088835;28;20032;-79
2023/05/18 07:36:19;;;;;;;18.90;9.32;;;;;;;;;;5076476;28;20036;-85
2023/05/18 07:38:46;;;;;;;14.07;8.20;;;;;;;;;;5078955;28;20028;-82
2023/05/18 07:41:12;;;;;;;12.95;8.57;;;;;;;;;;5077520;28;20935;-85
2023/05/18 07:43:38;;;;;;;18.48;7.60;;;;;;;;;;5064536;28;20051;-83
2023/05/18 07:46:05;;;;;;;18.73;8.68;;;;;;;;;;5074135;28;20059;-82
2023/05/18 07:48:31;;;;;;;16.50;8.30;;;;;;;;;;5084145;28;20020;-84
2023/05/18 07:50:57;;;;;;;15.23;8.77;;;;;;;;;;5069215;28;20076;-84
2023/05/18 07:53:23;;;;;;;18.02;8.63;;;;;;;;;;5079035;28;20028;-84
2023/05/18 07:55:50;;;;;;;16.58;8.52;;;;;;;;;;5089609;28;20080;-83
2023/05/18 07:58:17;;;;;;;13.00;7.68;;;;;;;;;;5081126;28;20099;-84
2023/05/18 08:00:43;;;;;;;15.35;5.72;;;;;;;;;;5089123;28;20020;-82
2023/05/18 08:03:09;;;;;;;10.35;4.35;;;;;;;;;;5078333;28;20036;-81
2023/05/18 08:05:35;;;;;;;10.20;4.35;;;;;;;;;;5057918;28;20423;-84
2023/05/18 08:08:01;;;;;;;13.07;5.47;;;;;;;;;;5086048;28;20059;-86
2023/05/18 08:10:28;;;;;;;12.98;5.35;;;;;;;;;;5065536;28;20024;-86
2023/05/18 08:12:54;;;;;;;17.05;7.30;;;;;;;;;;5080648;28;20031;-83
2023/05/18 08:15:20;;;;;;;15.20;6.50;;;;;;;;;;5082890;28;20024;-84
2023/05/18 08:17:47;;;;;;;15.80;6.90;;;;;;;;;;5059426;28;20055;-83
2023/05/18 08:20:13;;;;;;;17.27;6.38;;;;;;;;;;5080023;28;20477;-83
2023/05/18 08:22:39;;;;;;;14.73;5.97;;;;;;;;;;5077831;28;20059;-83
2023/05/18 08:25:05;;;;;;;19.33;6.63;;;;;;;;;;5074863;28;20031;-84
2023/05/18 08:27:31;;;;;;;16.23;5.28;;;;;;;;;;5079214;28;20050;-84
2023/05/18 11:00:38;;;;;;;15.35;5.88;;;;;;;;;;5091782;27;20480;-75
2023/05/18 11:03:07;;;;;;;13.68;5.53;;;;;;;;;;5077148;28;20021;-76
2023/05/18 11:05:34;;;;;;;18.00;6.20;;;;;;;;;;5077093;28;20066;-76
2023/05/18 11:08:02;;;;;;;15.50;5.35;;;;;;;;;;5081888;28;20056;-75
2023/05/18 11:10:35;;;;;;;15.32;4.68;;;;;;;;;;5081158;28;20165;-76
2023/05/18 11:13:01;;;;;;;15.05;5.45;;;;;;;;;;5081960;28;20192;-75
2023/05/18 11:15:46;;;;;;;17.13;5.28;;;;;;;;;;5079378;28;20099;-75
2023/05/18 11:18:13;;;;;;;13.48;4.72;;;;;;;;;;5081640;28;20132;-76
2023/05/18 11:20:39;;;;;;;9.80;5.30;;;;;;;;;;5081270;28;20032;-76
2023/05/18 11:23:06;;;;;;;9.77;5.00;;;;;;;;;;5081902;28;20021;-76
2023/05/18 11:25:32;;;;;;;11.50;4.65;;;;;;;;;;5073035;28;20111;-76
2023/05/18 11:28:04;;;;;;;10.50;4.45;;;;;;;;;;5077224;28;20036;-73
2023/05/18 11:30:34;;;;;;;21.10;5.53;;;;;;;;;;5076707;28;20770;-73
2023/05/18 11:33:39;;;;;;;12.25;4.82;;;;;;;;;;5075098;28;20026;-73
2023/05/18 11:36:13;;;;;;;10.13;4.57;;;;;;;;;;5012688;28;20417;-73
2023/05/18 11:38:47;;;;;;;10.38;3.83;;;;;;;;;;5070015;28;20044;-73
2023/05/18 11:41:28;;;;;;;16.95;4.50;;;;;;;;;;5079934;28;20073;-76
2023/05/18 11:44:05;;;;;;;11.05;4.03;;;;;;;;;;5080520;28;20021;-76
2023/05/18 11:46:32;;;;;;;13.63;4.50;;;;;;;;;;5076515;28;20021;-75
2023/05/18 11:49:07;;;;;;;9.15;3.92;;;;;;;;;;5078124;28;20103;-76
2023/05/18 11:51:54;;;;;;;9.23;4.07;;;;;;;;;;5079261;28;20107;-75
2023/05/18 11:54:22;;;;;;;12.68;4.30;;;;;;;;;;5079499;28;20028;-75
2023/05/18 11:56:50;;;;;;;10.90;4.00;;;;;;;;;;5077803;28;20090;-75
2023/05/18 11:59:16;;;;;;;13.20;4.38;;;;;;;;;;5087000;28;20469;-75
2023/05/18 12:01:42;;;;;;;6.70;5.07;;;;;;;;;;5066492;28;20159;-74
2023/05/18 12:04:09;;;;;;;10.48;5.22;;;;;;;;;;5068021;28;20025;-75
2023/05/18 12:06:36;;;;;;;8.70;5.10;;;;;;;;;;5062473;28;20032;-74
2023/05/18 12:09:04;;;;;;;9.82;5.03;;;;;;;;;;5068739;28;20036;-75
2023/05/18 12:11:31;;;;;;;12.68;5.72;;;;;;;;;;5068921;28;20021;-75
2023/05/18 12:13:58;;;;;;;14.63;6.35;;;;;;;;;;5067541;28;20059;-75
2023/05/18 12:16:25;;;;;;;14.52;7.30;;;;;;;;;;5067775;28;20019;-75
2023/05/18 12:18:51;;;;;;;17.50;8.65;;;;;;;;;;5069136;28;20067;-75
2023/05/18 12:21:21;;;;;;;16.70;8.50;;;;;;;;;;5067325;28;20012;-75
2023/05/18 12:23:47;;;;;;;21.20;7.80;;;;;;;;;;5065814;28;20498;-73
2023/05/18 12:26:13;;;;;;;15.65;7.38;;;;;;;;;;5067936;28;20495;-75
2023/05/18 12:28:40;;;;;;;11.88;7.57;;;;;;;;;;5066599;28;20080;-76
2023/05/18 12:31:07;;;;;;;17.63;7.50;;;;;;;;;;5066460;28;20032;-75
2023/05/18 12:33:34;;;;;;;11.27;5.88;;;;;;;;;;5067598;28;20055;-77
2023/05/18 12:36:00;;;;;;;17.40;6.55;;;;;;;;;;5065361;28;20028;-75
2023/05/18 12:38:31;;;;;;;14.18;6.03;;;;;;;;;;5066381;28;20107;-76
2023/05/18 12:40:57;;;;;;;13.50;5.82;;;;;;;;;;5060175;28;20411;-75
2023/05/18 12:43:25;;;;;;;14.55;5.68;;;;;;;;;;5068106;28;20040;-76
2023/05/18 12:45:52;;;;;;;15.18;5.93;;;;;;;;;;5071132;28;20074;-75
2023/05/18 12:48:18;;;;;;;12.40;6.10;;;;;;;;;;5058216;28;20108;-75
2023/05/18 12:50:49;;;;;;;14.50;5.82;;;;;;;;;;5063312;28;20048;-75
2023/05/18 12:53:16;;;;;;;14.40;6.53;;;;;;;;;;5063944;28;20029;-75
2023/05/18 12:55:42;;;;;;;12.90;5.38;;;;;;;;;;5056317;28;20021;-75
2023/05/18 12:58:16;;;;;;;11.60;6.07;;;;;;;;;;5052765;28;20583;-75
2023/05/18 13:00:43;;;;;;;16.27;7.13;;;;;;;;;;5049688;28;20097;-76
2023/05/18 13:03:10;;;;;;;14.32;5.65;;;;;;;;;;5051588;28;20028;-75
2023/05/18 13:05:37;;;;;;;13.15;6.53;;;;;;;;;;5055586;28;20029;-76
2023/05/18 13:08:03;;;;;;;15.85;5.50;;;;;;;;;;5056864;28;20040;-75
2023/05/18 13:10:31;;;;;;;13.13;5.53;;;;;;;;;;5050014;28;20104;-75
2023/05/18 13:13:02;;;;;;;15.02;5.22;;;;;;;;;;5051981;28;20028;-79
2023/05/18 13:15:32;;;;;;;9.00;4.53;;;;;;;;;;5063821;28;20819;-78
2023/05/18 13:18:01;;;;;;;11.38;4.65;;;;;;;;;;5064741;28;20100;-76
2023/05/18 13:20:35;;;;;;;11.25;3.92;;;;;;;;;;5062228;28;20551;-79
2023/05/18 13:23:08;;;;;;;9.98;3.72;;;;;;;;;;5061380;28;20040;-77
2023/05/18 13:25:34;;;;;;;10.70;4.25;;;;;;;;;;5060668;28;20031;-78
2023/05/18 13:28:01;;;;;;;11.05;4.82;;;;;;;;;;5063662;28;20649;-81
2023/05/18 13:30:27;;;;;;;14.65;4.97;;;;;;;;;;5062260;28;20380;-79
2023/05/18 13:32:54;;;;;;;14.18;4.50;;;;;;;;;;5064655;28;20036;-78
2023/05/18 13:35:20;;;;;;;11.10;4.25;;;;;;;;;;5060080;28;20103;-79
2023/05/18 13:37:47;;;;;;;12.02;3.80;;;;;;;;;;5064832;28;20519;-79
2023/05/18 13:40:17;;;;;;;11.55;3.85;;;;;;;;;;5058266;28;20728;-80
2023/05/18 13:42:44;;;;;;;8.50;3.95;;;;;;;;;;5058753;28;20488;-79
2023/05/18 13:45:11;;;;;;;15.30;4.15;;;;;;;;;;5057341;28;20625;-77
2023/05/18 13:47:37;;;;;;;12.52;4.03;;;;;;;;;;5062899;28;20020;-77
2023/05/18 13:50:05;;;;;;;11.70;4.00;;;;;;;;;;5060590;28;20024;-80
2023/05/18 13:52:31;;;;;;;12.45;4.05;;;;;;;;;;5056649;28;20028;-80
2023/05/18 13:54:57;;;;;;;16.27;3.92;;;;;;;;;;5062965;28;20460;-79
2023/05/18 13:57:25;;;;;;;11.43;4.32;;;;;;;;;;5062932;28;20029;-80
2023/05/18 13:59:57;;;;;;;14.60;4.10;;;;;;;;;;5062610;28;20040;-80
2023/05/18 14:02:23;;;;;;;8.98;3.85;;;;;;;;;;5063445;28;20525;-80
2023/05/18 14:04:50;;;;;;;11.05;4.30;;;;;;;;;;5061484;28;20025;-80
2023/05/18 14:07:16;;;;;;;8.90;3.85;;;;;;;;;;5064220;28;20393;-79
2023/05/18 14:09:42;;;;;;;8.45;4.30;;;;;;;;;;5059365;28;20229;-80
2023/05/18 14:12:09;;;;;;;12.45;3.97;;;;;;;;;;5063273;28;20107;-80
2023/05/18 14:14:36;;;;;;;11.63;3.67;;;;;;;;;;5060552;28;20016;-80
2023/05/18 14:17:03;;;;;;;10.20;3.22;;;;;;;;;;5065262;28;20028;-79
2023/05/18 14:19:29;;;;;;;13.77;4.90;;;;;;;;;;5060260;28;20084;-79
2023/05/18 14:21:55;;;;;;;12.95;4.80;;;;;;;;;;5061321;28;20056;-79
2023/05/18 14:24:21;;;;;;;16.55;3.90;;;;;;;;;;5063730;28;20028;-78
2023/05/18 14:26:47;;;;;;;12.40;4.20;;;;;;;;;;5061275;28;20476;-80
2023/05/18 14:29:14;;;;;;;15.15;4.03;;;;;;;;;;5054795;28;20549;-79
2023/05/18 14:31:40;;;;;;;14.68;4.50;;;;;;;;;;5056310;28;20499;-79
2023/05/18 14:34:06;;;;;;;10.48;4.10;;;;;;;;;;5056488;28;20048;-79
2023/05/18 14:36:32;;;;;;;9.30;3.60;;;;;;;;;;5062951;28;20846;-78
2023/05/18 14:38:58;;;;;;;12.93;3.97;;;;;;;;;;5059536;28;20093;-80
2023/05/18 14:41:25;;;;;;;12.85;4.47;;;;;;;;;;5061565;28;20617;-79
2023/05/18 14:43:52;;;;;;;10.32;4.28;;;;;;;;;;5059154;28;20037;-78
2023/05/18 14:46:18;;;;;;;16.77;4.68;;;;;;;;;;5061952;28;20085;-81
2023/05/18 14:48:45;;;;;;;13.02;4.65;;;;;;;;;;5058847;28;20402;-78
2023/05/18 14:51:12;;;;;;;10.30;3.90;;;;;;;;;;5058507;28;20107;-82
2023/05/18 14:53:38;;;;;;;11.43;4.07;;;;;;;;;;5059802;28;20050;-77
2023/05/18 14:56:07;;;;;;;9.73;3.72;;;;;;;;;;5060712;28;20066;-76
2023/05/18 14:58:33;;;;;;;10.35;4.30;;;;;;;;;;5059291;28;20535;-78
2023/05/18 15:01:00;;;;;;;8.90;3.47;;;;;;;;;;5068800;28;20017;-77
2023/05/18 15:03:26;;;;;;;9.25;3.80;;;;;;;;;;5060632;28;20051;-80
2023/05/18 15:05:54;;;;;;;9.95;4.50;;;;;;;;;;5066630;28;20031;-81
2023/05/18 15:08:20;;;;;;;10.05;3.92;;;;;;;;;;5061617;28;20055;-77
2023/05/18 15:10:46;;;;;;;13.57;4.03;;;;;;;;;;5062541;28;20021;-76
2023/05/18 15:13:14;;;;;;;13.73;4.38;;;;;;;;;;5058039;28;20082;-76
2023/05/18 15:15:41;;;;;;;10.65;4.13;;;;;;;;;;5058179;28;20021;-78
2023/05/18 15:18:07;;;;;;;11.95;3.72;;;;;;;;;;5058696;28;20050;-77
2023/05/18 15:20:33;;;;;;;7.63;3.38;;;;;;;;;;5060404;28;20111;-78
2023/05/18 15:22:59;;;;;;;10.73;3.55;;;;;;;;;;5061145;28;20048;-76
2023/05/18 15:25:26;;;;;;;9.20;3.92;;;;;;;;;;5062043;28;20024;-78
2023/05/18 15:27:52;;;;;;;13.20;3.97;;;;;;;;;;5064947;28;20017;-79
2023/05/18 15:30:18;;;;;;;17.05;4.18;;;;;;;;;;5060333;28;20021;-80
2023/05/18 15:32:45;;;;;;;11.90;4.25;;;;;;;;;;5062630;28;20906;-79
2023/05/18 15:35:11;;;;;;;9.77;3.72;;;;;;;;;;5058933;28;20638;-78
2023/05/18 15:37:37;;;;;;;12.82;4.63;;;;;;;;;;5070752;28;20381;-79
2023/05/18 15:40:04;;;;;;;12.68;4.22;;;;;;;;;;5064854;28;20123;-81
2023/05/18 15:42:31;;;;;;;14.50;4.53;;;;;;;;;;5062804;28;20023;-81
2023/05/18 15:44:57;;;;;;;14.05;4.95;;;;;;;;;;5062584;28;20085;-80
2023/05/18 15:47:23;;;;;;;11.75;3.97;;;;;;;;;;5065490;28;20087;-79
2023/05/18 15:49:50;;;;;;;18.45;4.43;;;;;;;;;;5065204;28;20025;-80
2023/05/18 15:52:16;;;;;;;14.25;4.65;;;;;;;;;;5064195;28;20466;-79
2023/05/18 15:54:42;;;;;;;11.98;4.28;;;;;;;;;;5061667;28;20091;-79
2023/05/18 15:57:08;;;;;;;11.00;3.60;;;;;;;;;;5065797;28;20024;-80
2023/05/18 15:59:34;;;;;;;14.77;4.18;;;;;;;;;;5065738;28;20494;-77
2023/05/18 16:02:01;;;;;;;16.00;3.78;;;;;;;;;;5064349;28;20103;-77
2023/05/18 16:04:27;;;;;;;13.57;4.75;;;;;;;;;;5060971;28;20056;-80
2023/05/18 16:06:53;;;;;;;13.07;4.35;;;;;;;;;;5065864;28;20048;-79
2023/05/18 16:09:20;;;;;;;15.10;4.30;;;;;;;;;;5060336;28;20033;-80
2023/05/18 16:11:46;;;;;;;11.98;3.15;;;;;;;;;;5064270;28;20048;-80
2023/05/18 16:14:12;;;;;;;9.15;3.13;;;;;;;;;;5060201;28;20033;-82
2023/05/18 16:16:38;;;;;;;9.48;3.22;;;;;;;;;;5065800;28;20036;-80
2023/05/18 16:19:06;;;;;;;14.43;3.35;;;;;;;;;;5063465;28;20113;-80
2023/05/18 16:21:32;;;;;;;8.57;3.20;;;;;;;;;;5065847;28;20514;-80
2023/05/18 16:23:58;;;;;;;10.27;4.15;;;;;;;;;;5069151;28;20059;-82
2023/05/18 16:26:25;;;;;;;13.57;3.65;;;;;;;;;;5066221;28;20024;-80
2023/05/18 16:28:51;;;;;;;10.50;4.00;;;;;;;;;;5066488;28;20024;-78
2023/05/18 16:31:17;;;;;;;15.70;4.60;;;;;;;;;;5065538;28;20361;-78
2023/05/18 16:33:43;;;;;;;13.05;3.58;;;;;;;;;;5071962;28;20047;-77
2023/05/18 16:36:10;;;;;;;12.05;3.35;;;;;;;;;;5069003;28;20376;-78
2023/05/18 16:38:37;;;;;;;13.85;3.92;;;;;;;;;;5067346;28;20038;-80
2023/05/18 16:41:03;;;;;;;9.45;4.05;;;;;;;;;;5069022;28;20023;-79
2023/05/18 16:43:30;;;;;;;11.77;3.95;;;;;;;;;;5064810;28;20494;-78
2023/05/18 16:45:56;;;;;;;13.45;4.57;;;;;;;;;;5067388;28;20599;-78
2023/05/18 16:48:22;;;;;;;12.57;4.10;;;;;;;;;;5067618;28;20096;-80
2023/05/18 16:50:49;;;;;;;10.27;3.58;;;;;;;;;;5066698;28;20038;-80
2023/05/18 16:53:15;;;;;;;10.32;4.00;;;;;;;;;;5066089;28;20028;-81
2023/05/18 16:55:41;;;;;;;17.40;4.47;;;;;;;;;;5066397;28;20054;-79
2023/05/18 16:58:07;;;;;;;14.23;3.95;;;;;;;;;;5066343;28;20035;-76
2023/05/18 17:00:34;;;;;;;12.05;4.32;;;;;;;;;;5065638;28;20488;-76
2023/05/18 17:03:01;;;;;;;10.45;3.53;;;;;;;;;;5067853;28;20048;-76
2023/05/18 17:05:28;;;;;;;12.18;4.32;;;;;;;;;;5065314;28;20090;-78
2023/05/18 17:07:54;;;;;;;15.73;4.25;;;;;;;;;;5066189;28;20158;-77